createdAt,value
2022-10-25T00:05:27.764Z,12.70
2022-10-25T00:11:33.090Z,12.70
2022-10-25T00:17:34.977Z,12.80
2022-10-25T00:23:37.135Z,12.70
2022-10-25T00:29:39.193Z,12.60
2022-10-25T00:35:46.424Z,12.50
2022-10-25T00:41:48.759Z,12.40
2022-10-25T00:48:10.867Z,12.50
2022-10-25T00:54:20.461Z,12.40
2022-10-25T01:00:22.748Z,12.40
2022-10-25T01:06:41.230Z,12.20
2022-10-25T01:12:48.719Z,12.30
2022-10-25T01:19:40.720Z,12.20
2022-10-25T01:26:26.929Z,12.40
2022-10-25T01:32:59.844Z,12.60
2022-10-25T01:39:33.146Z,12.70
2022-10-25T01:46:24.475Z,12.80
2022-10-25T01:52:27.380Z,12.70
2022-10-25T01:59:00.410Z,12.70
2022-10-25T02:05:39.981Z,12.80
2022-10-25T02:11:42.131Z,12.70
2022-10-25T02:17:55.784Z,12.60
2022-10-25T02:23:59.962Z,12.70
2022-10-25T02:30:02.387Z,12.70
2022-10-25T02:36:12.564Z,12.70
2022-10-25T02:42:14.450Z,12.90
2022-10-25T02:48:16.356Z,13.00
2022-10-25T02:54:18.359Z,13.00
2022-10-25T03:00:20.341Z,13.00
2022-10-25T03:06:22.490Z,13.00
2022-10-25T03:12:24.417Z,13.10
2022-10-25T03:18:26.445Z,13.00
2022-10-25T03:24:28.369Z,13.10
2022-10-25T03:30:31.507Z,13.00
2022-10-25T03:36:33.460Z,13.00
2022-10-25T03:42:35.328Z,12.90
2022-10-25T03:48:37.447Z,12.80
2022-10-25T03:54:39.414Z,12.80
2022-10-25T04:00:41.458Z,12.80
2022-10-25T04:06:43.693Z,12.90
2022-10-25T04:12:46.952Z,12.90
2022-10-25T04:18:53.269Z,13.00
2022-10-25T04:24:55.270Z,13.00
2022-10-25T04:30:57.304Z,12.90
2022-10-25T04:36:59.210Z,13.00
2022-10-25T04:43:13.378Z,13.00
2022-10-25T04:49:16.144Z,13.10
2022-10-25T04:55:18.051Z,13.10
2022-10-25T05:01:20.156Z,13.10
2022-10-25T05:07:22.759Z,13.20
2022-10-25T05:13:24.769Z,13.20
2022-10-25T05:19:27.015Z,13.30
2022-10-25T05:25:28.957Z,13.20
2022-10-25T05:31:31.566Z,13.20
2022-10-25T05:37:34.231Z,13.30
2022-10-25T05:43:36.174Z,13.30
2022-10-25T05:49:40.387Z,13.30
2022-10-25T05:55:42.444Z,13.20
2022-10-25T06:01:46.793Z,13.20
2022-10-25T06:07:49.503Z,13.30
2022-10-25T06:13:53.156Z,13.30
2022-10-25T06:19:59.523Z,13.20
2022-10-25T06:26:04.824Z,13.30
2022-10-25T06:32:06.759Z,13.30
2022-10-25T06:38:16.319Z,13.40
2022-10-25T06:44:18.698Z,13.50
2022-10-25T06:50:20.608Z,13.60
2022-10-25T06:56:23.114Z,13.60
2022-10-25T07:02:25.254Z,13.70
2022-10-25T07:08:27.352Z,13.60
2022-10-25T07:14:29.282Z,13.70
2022-10-25T07:20:31.502Z,13.70
2022-10-25T07:26:35.181Z,13.70
2022-10-25T07:32:52.801Z,13.60
2022-10-25T07:38:57.689Z,13.70
2022-10-25T07:51:37.560Z,13.50
2022-10-25T07:57:39.724Z,13.40
2022-10-25T08:03:41.679Z,13.60
2022-10-25T08:09:44.144Z,13.60
2022-10-25T08:15:55.036Z,13.70
2022-10-25T08:21:57.070Z,13.70
2022-10-25T08:27:59.756Z,13.60
2022-10-25T08:34:02.337Z,13.60
2022-10-25T08:47:01.754Z,13.50
2022-10-25T08:53:12.496Z,13.80
2022-10-25T08:59:21.086Z,13.90
2022-10-25T09:05:51.213Z,14.00
2022-10-25T09:12:29.049Z,14.40
2022-10-25T09:18:48.521Z,14.70
2022-10-25T09:25:09.206Z,15.00
2022-10-25T09:31:16.734Z,15.30
2022-10-25T09:37:27.075Z,15.40
2022-10-25T09:43:56.705Z,15.30
2022-10-25T09:50:29.379Z,15.30
2022-10-25T09:56:31.309Z,15.50
2022-10-25T10:02:33.590Z,15.50
2022-10-25T10:08:37.559Z,15.50
2022-10-25T10:14:55.392Z,15.40
2022-10-25T10:21:12.140Z,15.20
2022-10-25T10:27:27.844Z,15.10
2022-10-25T10:33:33.101Z,15.10
2022-10-25T10:39:46.014Z,15.50
2022-10-25T10:45:52.548Z,15.50
2022-10-25T10:51:54.505Z,15.40
2022-10-25T10:58:26.995Z,15.50
2022-10-25T11:04:29.523Z,15.60
2022-10-25T11:10:40.034Z,15.60
2022-10-25T11:17:19.512Z,15.70
2022-10-25T11:24:06.855Z,16.10
2022-10-25T11:30:08.817Z,16.60
2022-10-25T11:36:45.330Z,17.00
2022-10-25T11:50:57.002Z,17.60
2022-10-25T11:57:43.471Z,17.70
2022-10-25T12:03:55.164Z,17.90
2022-10-25T12:10:39.861Z,17.80
2022-10-25T12:16:43.362Z,17.40
2022-10-25T12:22:50.081Z,17.10
2022-10-25T12:28:52.822Z,16.90
2022-10-25T12:34:56.437Z,17.00
2022-10-25T12:41:06.986Z,16.90
2022-10-25T12:47:35.475Z,16.90
2022-10-25T12:54:35.945Z,16.90
2022-10-25T13:01:07.539Z,17.20
2022-10-25T13:07:11.892Z,17.30
2022-10-25T13:13:28.927Z,17.30
2022-10-25T13:25:54.325Z,17.20
2022-10-25T13:32:10.360Z,17.40
2022-10-25T13:45:56.358Z,17.40
2022-10-25T13:52:07.456Z,17.20
2022-10-25T13:58:31.272Z,16.90
2022-10-25T14:04:38.752Z,16.70
2022-10-25T14:10:41.220Z,16.70
2022-10-25T14:16:58.923Z,16.70
2022-10-25T14:23:15.500Z,16.90
2022-10-25T14:29:46.360Z,16.80
2022-10-25T14:36:29.935Z,16.70
2022-10-25T14:43:30.780Z,16.60
2022-10-25T14:49:34.433Z,16.40
2022-10-25T14:55:36.714Z,16.30
2022-10-25T15:01:42.174Z,16.20
2022-10-25T15:07:47.071Z,16.20
2022-10-25T15:13:52.054Z,16.40
2022-10-25T15:20:16.266Z,16.50
2022-10-25T15:26:28.068Z,16.60
2022-10-25T15:32:30.178Z,16.40
2022-10-25T15:39:05.866Z,16.10
2022-10-25T15:44:58.830Z,15.90
2022-10-25T15:51:00.777Z,15.70
2022-10-25T15:57:03.565Z,15.60
2022-10-25T16:03:05.956Z,15.30
2022-10-25T16:09:08.016Z,14.90
2022-10-25T16:15:15.581Z,14.50
2022-10-25T16:21:19.669Z,14.20
2022-10-25T16:27:21.600Z,14.00
2022-10-25T16:33:23.470Z,13.80
2022-10-25T16:39:25.375Z,13.50
2022-10-25T16:45:42.428Z,13.40
2022-10-25T16:51:44.406Z,13.20
2022-10-25T17:03:54.632Z,13.00
2022-10-25T17:09:57.072Z,13.00
2022-10-25T17:15:58.962Z,13.10
2022-10-25T17:22:00.907Z,13.10
2022-10-25T17:28:03.156Z,13.00
2022-10-25T17:34:05.219Z,13.00
2022-10-25T17:40:07.934Z,12.80
2022-10-25T17:52:54.846Z,12.50
2022-10-25T17:58:58.466Z,12.50
2022-10-25T18:05:19.450Z,12.30
2022-10-25T18:11:26.024Z,12.20
2022-10-25T18:17:28.098Z,12.20
2022-10-25T18:23:49.970Z,12.10
2022-10-25T18:36:19.043Z,12.00
2022-10-25T18:42:21.439Z,12.00
2022-10-25T18:48:23.451Z,12.00
2022-10-25T18:54:25.460Z,11.90
2022-10-25T19:00:31.184Z,11.90
2022-10-25T19:06:33.883Z,11.90
2022-10-25T19:12:35.914Z,12.00
2022-10-25T19:18:38.166Z,11.90
2022-10-25T19:24:40.084Z,11.90
2022-10-25T19:30:42.153Z,11.80
2022-10-25T19:36:44.296Z,11.80
2022-10-25T19:42:46.716Z,11.70
2022-10-25T19:55:07.090Z,11.60
2022-10-25T20:01:15.885Z,11.60
2022-10-25T20:07:18.663Z,11.40
2022-10-25T20:13:20.997Z,11.40
2022-10-25T20:19:22.949Z,11.40
2022-10-25T20:25:24.865Z,11.30
2022-10-25T20:31:30.759Z,11.30
2022-10-25T20:37:32.645Z,11.20
2022-10-25T20:43:35.067Z,11.20
2022-10-25T20:49:36.986Z,11.20
2022-10-25T20:55:39.268Z,11.20
2022-10-25T21:01:41.518Z,11.20
2022-10-25T21:07:43.541Z,11.10
2022-10-25T21:13:46.910Z,10.80
2022-10-25T21:20:11.452Z,10.80
2022-10-25T21:26:13.627Z,10.80
2022-10-25T21:32:15.584Z,10.60
2022-10-25T21:38:17.866Z,10.70
2022-10-25T21:44:20.304Z,10.60
2022-10-25T21:50:22.153Z,10.70
2022-10-25T21:56:30.692Z,10.60
2022-10-25T22:02:33.610Z,10.60
2022-10-25T22:08:36.027Z,10.50
2022-10-25T22:14:37.970Z,10.40
2022-10-25T22:20:39.836Z,10.40
2022-10-25T22:26:44.736Z,10.40
2022-10-25T22:32:47.100Z,10.30
2022-10-25T22:38:49.300Z,10.30
2022-10-25T22:44:51.145Z,10.20
2022-10-25T22:50:54.546Z,10.10
2022-10-25T22:56:56.394Z,10.00
2022-10-25T23:02:58.256Z,10.00
2022-10-25T23:09:04.273Z,10.00
2022-10-25T23:15:07.417Z,9.70
2022-10-25T23:21:18.006Z,9.80
2022-10-25T23:27:19.857Z,9.80
2022-10-25T23:33:21.714Z,9.60
2022-10-25T23:39:23.569Z,9.80
2022-10-25T23:45:27.050Z,9.50
2022-10-25T23:51:28.907Z,9.70
2022-10-25T23:57:30.772Z,9.70
